createdAt,value
2023-03-29T00:00:13.030Z,60.90
2023-03-29T00:02:41.623Z,61.10
2023-03-29T00:05:12.392Z,61.30
2023-03-29T00:07:42.573Z,61.70
2023-03-29T00:10:13.229Z,61.70
2023-03-29T00:12:42.071Z,62.10
2023-03-29T00:15:11.109Z,63.00
2023-03-29T00:17:39.212Z,63.20
2023-03-29T00:20:10.296Z,63.00
2023-03-29T00:22:39.861Z,62.80
2023-03-29T00:25:10.534Z,62.50
2023-03-29T00:27:39.218Z,62.00
2023-03-29T00:30:10.190Z,61.60
2023-03-29T00:32:38.450Z,61.10
2023-03-29T00:35:07.525Z,60.80
2023-03-29T00:37:35.839Z,60.90
2023-03-29T00:40:07.775Z,61.40
2023-03-29T00:42:37.283Z,61.70
2023-03-29T00:45:17.432Z,62.00
2023-03-29T00:47:48.361Z,61.90
2023-03-29T00:50:22.220Z,61.60
2023-03-29T00:52:55.508Z,62.10
2023-03-29T00:55:26.030Z,62.60
2023-03-29T00:57:58.678Z,63.00
2023-03-29T01:00:32.388Z,63.30
2023-03-29T01:03:02.694Z,64.50
2023-03-29T01:05:35.355Z,64.00
2023-03-29T01:08:06.988Z,64.10
2023-03-29T01:10:40.220Z,64.30
2023-03-29T01:13:12.987Z,64.20
2023-03-29T01:15:45.170Z,64.20
2023-03-29T01:18:13.985Z,63.90
2023-03-29T01:20:55.506Z,64.00
2023-03-29T01:23:38.866Z,64.00
2023-03-29T01:26:19.736Z,64.50
2023-03-29T01:28:54.219Z,64.40
2023-03-29T01:31:25.625Z,64.00
2023-03-29T01:34:01.090Z,64.00
2023-03-29T01:36:37.182Z,64.00
2023-03-29T01:39:07.747Z,64.00
2023-03-29T01:41:44.017Z,63.70
2023-03-29T01:44:19.014Z,63.30
2023-03-29T01:46:48.425Z,63.50
2023-03-29T01:49:25.015Z,63.30
2023-03-29T01:51:57.986Z,63.50
2023-03-29T01:54:29.883Z,63.80
2023-03-29T01:56:59.359Z,63.80
2023-03-29T01:59:32.364Z,63.80
2023-03-29T02:02:03.436Z,64.70
2023-03-29T02:04:35.444Z,65.00
2023-03-29T02:07:06.185Z,64.70
2023-03-29T02:09:36.348Z,64.20
2023-03-29T02:12:07.313Z,63.80
2023-03-29T02:14:36.752Z,63.50
2023-03-29T02:17:18.652Z,63.40
2023-03-29T02:19:51.265Z,63.30
2023-03-29T02:22:24.813Z,62.70
2023-03-29T02:24:59.324Z,62.70
2023-03-29T02:27:29.176Z,63.40
2023-03-29T02:29:59.099Z,63.80
2023-03-29T02:32:33.198Z,64.10
2023-03-29T02:35:06.678Z,64.50
2023-03-29T02:37:40.583Z,64.10
2023-03-29T02:40:12.569Z,64.00
2023-03-29T02:42:41.821Z,64.60
2023-03-29T02:45:14.668Z,64.70
2023-03-29T02:47:46.769Z,64.40
2023-03-29T02:50:15.045Z,64.80
2023-03-29T02:52:49.766Z,64.60
2023-03-29T02:55:20.318Z,63.20
2023-03-29T02:57:48.258Z,63.00
2023-03-29T03:00:19.894Z,63.10
2023-03-29T03:02:48.956Z,62.10
2023-03-29T03:05:17.595Z,60.90
2023-03-29T03:07:46.396Z,60.90
2023-03-29T03:10:14.353Z,60.80
2023-03-29T03:12:42.308Z,60.10
2023-03-29T03:15:11.008Z,60.10
2023-03-29T03:17:40.376Z,60.20
2023-03-29T03:20:13.048Z,60.00
2023-03-29T03:22:42.448Z,60.50
2023-03-29T03:25:15.274Z,62.30
2023-03-29T03:27:43.760Z,61.90
2023-03-29T03:30:12.604Z,61.30
2023-03-29T03:32:43.626Z,60.40
2023-03-29T03:35:12.699Z,60.90
2023-03-29T03:37:41.566Z,60.00
2023-03-29T03:40:13.623Z,60.30
2023-03-29T03:42:42.297Z,60.40
2023-03-29T03:45:11.104Z,60.30
2023-03-29T03:47:39.545Z,59.90
2023-03-29T03:50:10.349Z,59.20
2023-03-29T03:52:38.328Z,59.00
2023-03-29T03:55:06.906Z,59.00
2023-03-29T03:57:37.501Z,58.90
2023-03-29T04:00:19.243Z,57.90
2023-03-29T04:02:48.909Z,57.80
2023-03-29T04:05:20.003Z,58.10
2023-03-29T04:07:48.874Z,58.20
2023-03-29T04:10:17.172Z,58.10
2023-03-29T04:12:45.256Z,58.20
2023-03-29T04:15:13.288Z,58.30
2023-03-29T04:17:41.401Z,58.60
2023-03-29T04:20:12.468Z,58.70
2023-03-29T04:22:42.231Z,58.90
2023-03-29T04:25:11.813Z,58.80
2023-03-29T04:27:40.014Z,60.60
2023-03-29T04:30:09.603Z,67.50
2023-03-29T04:32:37.748Z,73.10
2023-03-29T04:35:06.767Z,71.00
2023-03-29T04:37:35.086Z,73.30
2023-03-29T04:40:05.203Z,72.80
2023-03-29T04:42:34.267Z,75.30
2023-03-29T04:45:02.397Z,78.30
2023-03-29T04:47:31.298Z,79.40
2023-03-29T04:49:59.278Z,80.40
2023-03-29T04:52:27.370Z,81.90
2023-03-29T04:54:55.400Z,82.80
2023-03-29T04:57:24.807Z,83.70
2023-03-29T04:59:52.844Z,84.10
2023-03-29T05:02:22.095Z,84.00
2023-03-29T05:04:50.613Z,85.20
2023-03-29T05:07:19.485Z,86.00
2023-03-29T05:09:47.605Z,85.20
2023-03-29T05:12:16.107Z,84.70
2023-03-29T05:14:45.767Z,83.70
2023-03-29T05:17:13.831Z,82.80
2023-03-29T05:19:43.395Z,82.90
2023-03-29T05:22:11.685Z,83.10
2023-03-29T05:24:39.799Z,83.80
2023-03-29T05:27:07.757Z,83.80
2023-03-29T05:29:35.847Z,83.40
2023-03-29T05:32:05.445Z,83.00
2023-03-29T05:34:33.584Z,83.20
2023-03-29T05:37:01.630Z,83.30
2023-03-29T05:39:29.814Z,84.10
2023-03-29T05:41:57.780Z,85.00
2023-03-29T05:44:25.901Z,85.60
2023-03-29T05:46:53.905Z,86.70
2023-03-29T05:49:23.318Z,87.70
2023-03-29T05:51:52.058Z,88.40
2023-03-29T05:54:20.174Z,88.70
2023-03-29T05:56:48.163Z,88.80
2023-03-29T05:59:17.658Z,89.00
2023-03-29T06:01:46.989Z,89.00
2023-03-29T06:04:15.631Z,88.90
2023-03-29T06:06:45.239Z,88.60
2023-03-29T06:09:13.422Z,88.30
2023-03-29T06:11:41.496Z,89.10
2023-03-29T06:14:09.591Z,89.20
2023-03-29T06:16:38.080Z,89.70
2023-03-29T06:19:06.796Z,90.30
2023-03-29T06:21:34.921Z,91.00
2023-03-29T06:24:05.165Z,92.20
2023-03-29T06:26:33.586Z,92.90
2023-03-29T06:29:01.640Z,93.30
2023-03-29T06:31:30.126Z,93.90
2023-03-29T06:33:58.756Z,94.70
2023-03-29T06:36:26.968Z,95.50
2023-03-29T06:38:55.407Z,95.90
2023-03-29T06:41:24.772Z,96.30
2023-03-29T06:43:53.606Z,96.50
2023-03-29T06:46:21.596Z,96.90
2023-03-29T06:48:49.821Z,97.10
2023-03-29T06:51:18.007Z,97.20
2023-03-29T06:53:46.300Z,97.70
2023-03-29T06:56:14.674Z,98.40
2023-03-29T06:58:44.976Z,99.10
2023-03-29T07:01:14.135Z,99.90
2023-03-29T07:03:46.021Z,99.90
2023-03-29T07:06:16.715Z,99.90
2023-03-29T07:08:46.840Z,99.90
2023-03-29T07:11:16.349Z,99.90
2023-03-29T07:13:46.290Z,99.90
2023-03-29T07:16:15.132Z,99.90
2023-03-29T07:18:44.940Z,99.90
2023-03-29T07:21:13.929Z,99.90
2023-03-29T07:23:42.548Z,99.90
2023-03-29T07:26:11.151Z,99.90
2023-03-29T07:28:39.907Z,99.90
2023-03-29T07:31:12.436Z,99.90
2023-03-29T07:33:40.918Z,99.90
2023-03-29T07:36:09.923Z,99.90
2023-03-29T07:38:38.440Z,99.90
2023-03-29T07:41:08.738Z,99.90
2023-03-29T07:43:36.961Z,99.90
2023-03-29T07:46:06.725Z,99.90
2023-03-29T07:48:37.216Z,99.90
2023-03-29T07:51:06.163Z,99.90
2023-03-29T07:53:34.435Z,99.90
2023-03-29T07:56:02.410Z,99.90
2023-03-29T07:58:30.576Z,99.90
2023-03-29T08:01:01.392Z,99.90
2023-03-29T08:03:29.811Z,99.90
2023-03-29T08:06:02.397Z,99.90
2023-03-29T08:08:30.453Z,99.90
2023-03-29T08:10:58.483Z,99.90
2023-03-29T08:13:26.678Z,99.90
2023-03-29T08:15:55.581Z,99.90
2023-03-29T08:18:23.695Z,99.90
2023-03-29T08:20:52.623Z,99.90
2023-03-29T08:23:22.710Z,99.90
2023-03-29T08:25:50.966Z,99.90
2023-03-29T08:28:19.047Z,99.90
2023-03-29T08:30:48.144Z,99.90
2023-03-29T08:33:16.852Z,99.90
2023-03-29T08:35:44.947Z,99.90
2023-03-29T08:38:13.097Z,99.90
2023-03-29T08:40:42.659Z,99.90
2023-03-29T08:43:27.181Z,99.90
2023-03-29T08:46:08.473Z,99.90
2023-03-29T08:48:42.181Z,99.90
2023-03-29T08:51:18.431Z,99.90
2023-03-29T08:53:52.556Z,99.90
2023-03-29T08:56:26.224Z,99.90
2023-03-29T08:58:57.487Z,99.90
2023-03-29T09:01:28.970Z,99.90
2023-03-29T09:04:04.997Z,99.40
2023-03-29T09:06:33.835Z,98.90
2023-03-29T09:09:02.373Z,98.70
2023-03-29T09:11:48.018Z,97.60
2023-03-29T09:14:29.932Z,97.70
2023-03-29T09:17:02.270Z,97.30
2023-03-29T09:19:38.797Z,97.20
2023-03-29T09:22:14.172Z,96.60
2023-03-29T09:24:56.411Z,96.00
2023-03-29T09:27:31.055Z,95.50
2023-03-29T09:30:07.591Z,95.50
2023-03-29T09:32:42.384Z,95.20
2023-03-29T09:35:18.868Z,94.80
2023-03-29T09:37:48.579Z,94.60
2023-03-29T09:40:20.964Z,94.70
2023-03-29T09:42:52.385Z,94.80
2023-03-29T09:45:20.511Z,94.10
2023-03-29T09:47:52.771Z,94.20
2023-03-29T09:50:31.442Z,94.30
2023-03-29T09:53:00.605Z,94.00
2023-03-29T09:55:32.359Z,93.80
2023-03-29T09:58:03.205Z,93.90
2023-03-29T10:00:31.184Z,93.90
2023-03-29T10:03:00.309Z,93.80
2023-03-29T10:05:32.109Z,93.70
2023-03-29T10:08:02.227Z,93.90
2023-03-29T10:10:32.485Z,93.70
2023-03-29T10:13:05.661Z,93.20
2023-03-29T10:15:33.822Z,93.00
2023-03-29T10:18:04.159Z,93.00
2023-03-29T10:20:35.430Z,92.70
2023-03-29T10:23:03.416Z,92.50
2023-03-29T10:25:33.900Z,92.30
2023-03-29T10:28:08.299Z,91.70
2023-03-29T10:30:38.641Z,91.70
2023-03-29T10:33:09.066Z,91.30
2023-03-29T10:35:41.657Z,91.50
2023-03-29T10:38:14.964Z,91.60
2023-03-29T10:40:47.512Z,91.00
2023-03-29T10:43:23.354Z,91.20
2023-03-29T10:45:53.770Z,90.70
2023-03-29T10:48:29.054Z,90.50
2023-03-29T10:51:01.199Z,90.00
2023-03-29T10:53:32.646Z,89.50
2023-03-29T10:56:10.355Z,89.30
2023-03-29T10:59:06.125Z,88.10
2023-03-29T11:01:43.791Z,87.90
2023-03-29T11:04:25.419Z,87.30
2023-03-29T11:07:13.734Z,86.50
2023-03-29T11:09:51.556Z,85.90
2023-03-29T11:12:24.168Z,83.20
2023-03-29T11:15:04.685Z,82.70
2023-03-29T11:17:50.839Z,83.30
2023-03-29T11:20:29.426Z,84.90
2023-03-29T11:23:09.125Z,84.00
2023-03-29T11:25:46.452Z,84.30
2023-03-29T11:28:25.572Z,83.30
2023-03-29T11:31:02.433Z,83.30
2023-03-29T11:33:40.975Z,83.50
2023-03-29T11:36:16.749Z,83.80
2023-03-29T11:38:55.710Z,82.80
2023-03-29T11:41:27.758Z,82.70
2023-03-29T11:43:59.907Z,83.10
2023-03-29T11:46:34.375Z,82.00
2023-03-29T11:49:06.231Z,82.10
2023-03-29T11:51:39.193Z,80.40
2023-03-29T11:54:16.559Z,80.00
2023-03-29T11:56:49.188Z,80.60
2023-03-29T11:59:25.581Z,81.10
2023-03-29T12:01:57.601Z,82.50
2023-03-29T12:04:30.792Z,81.10
2023-03-29T12:07:10.293Z,79.60
2023-03-29T12:09:42.264Z,79.00
2023-03-29T12:12:16.544Z,79.90
2023-03-29T12:14:58.057Z,80.10
2023-03-29T12:17:31.929Z,79.60
2023-03-29T12:20:18.403Z,80.00
2023-03-29T12:22:50.966Z,79.70
2023-03-29T12:25:23.330Z,80.30
2023-03-29T12:28:00.883Z,81.80
2023-03-29T12:30:51.799Z,80.40
2023-03-29T12:33:57.445Z,80.30
2023-03-29T12:36:50.734Z,80.90
2023-03-29T12:39:20.504Z,80.90
2023-03-29T12:41:51.776Z,81.10
2023-03-29T12:44:23.623Z,81.60
2023-03-29T12:46:55.068Z,80.00
2023-03-29T12:49:29.444Z,79.90
2023-03-29T12:52:00.111Z,80.00
2023-03-29T12:54:31.784Z,78.70
2023-03-29T12:57:02.269Z,77.20
2023-03-29T12:59:43.036Z,77.80
2023-03-29T13:02:35.350Z,76.60
2023-03-29T13:05:07.572Z,76.00
2023-03-29T13:07:48.107Z,75.70
2023-03-29T13:10:38.438Z,76.00
2023-03-29T13:13:15.549Z,76.00
2023-03-29T13:15:45.763Z,75.50
2023-03-29T13:18:32.291Z,75.50
2023-03-29T13:21:10.678Z,75.10
2023-03-29T13:23:47.839Z,74.30
2023-03-29T13:26:34.652Z,74.80
2023-03-29T13:29:25.401Z,74.70
2023-03-29T13:32:01.827Z,75.10
2023-03-29T13:34:38.263Z,73.60
2023-03-29T13:37:24.060Z,72.80
2023-03-29T13:39:53.898Z,73.50
2023-03-29T13:42:25.942Z,73.30
2023-03-29T13:44:54.250Z,71.00
2023-03-29T13:47:54.914Z,71.30
2023-03-29T13:50:38.964Z,70.10
2023-03-29T13:53:16.516Z,70.40
2023-03-29T13:55:49.317Z,69.10
2023-03-29T13:58:27.416Z,69.40
2023-03-29T14:01:01.942Z,68.70
2023-03-29T14:03:37.519Z,68.60
2023-03-29T14:06:07.986Z,68.50
2023-03-29T14:08:40.959Z,67.50
2023-03-29T14:11:21.034Z,66.70
2023-03-29T14:13:49.180Z,66.60
2023-03-29T14:16:17.274Z,66.30
2023-03-29T14:18:47.849Z,66.10
2023-03-29T14:21:16.455Z,66.40
2023-03-29T14:23:48.194Z,66.50
2023-03-29T14:26:18.621Z,66.00
2023-03-29T14:28:47.573Z,65.50
2023-03-29T14:31:21.105Z,65.20
2023-03-29T14:33:54.005Z,65.20
2023-03-29T14:36:22.695Z,65.20
2023-03-29T14:38:54.822Z,64.50
2023-03-29T14:41:24.449Z,64.80
2023-03-29T14:43:52.652Z,65.00
2023-03-29T14:46:22.738Z,65.30
2023-03-29T14:48:51.067Z,65.20
2023-03-29T14:51:20.366Z,65.70
2023-03-29T14:53:49.469Z,65.30
2023-03-29T14:56:24.059Z,65.30
2023-03-29T14:58:55.806Z,65.30
2023-03-29T15:01:26.800Z,65.30
2023-03-29T15:03:58.069Z,63.40
2023-03-29T15:06:27.367Z,63.50
2023-03-29T15:09:04.865Z,63.60
2023-03-29T15:11:35.961Z,63.10
2023-03-29T15:14:06.025Z,64.30
2023-03-29T15:16:34.445Z,62.90
2023-03-29T15:19:03.614Z,62.60
2023-03-29T15:21:34.907Z,62.20
2023-03-29T15:24:05.125Z,62.90
2023-03-29T15:26:36.093Z,62.80
2023-03-29T15:29:08.640Z,62.60
2023-03-29T15:31:38.792Z,62.70
2023-03-29T15:34:09.580Z,62.30
2023-03-29T15:36:42.221Z,62.60
2023-03-29T15:39:13.131Z,63.00
2023-03-29T15:41:43.326Z,63.10
2023-03-29T15:44:11.902Z,63.50
2023-03-29T15:46:39.867Z,64.00
2023-03-29T15:49:11.969Z,64.60
2023-03-29T15:51:40.600Z,65.50
2023-03-29T15:54:09.310Z,65.70
2023-03-29T15:56:43.765Z,65.50
2023-03-29T15:59:13.923Z,65.80
2023-03-29T16:01:42.114Z,66.00
2023-03-29T16:04:14.107Z,65.90
2023-03-29T16:06:43.051Z,66.10
2023-03-29T16:09:12.935Z,67.50
2023-03-29T16:11:42.222Z,67.70
2023-03-29T16:14:23.078Z,67.80
2023-03-29T16:16:51.413Z,68.50
2023-03-29T16:19:19.747Z,70.20
2023-03-29T16:21:48.116Z,70.40
2023-03-29T16:24:19.711Z,70.50
2023-03-29T16:26:48.499Z,71.10
2023-03-29T16:29:17.298Z,72.00
2023-03-29T16:31:47.837Z,72.40
2023-03-29T16:34:18.798Z,72.40
2023-03-29T16:36:47.699Z,72.90
2023-03-29T16:39:16.090Z,73.50
2023-03-29T16:41:45.194Z,73.80
2023-03-29T16:44:16.576Z,74.20
2023-03-29T16:46:46.095Z,75.10
2023-03-29T16:49:18.035Z,75.70
2023-03-29T16:51:48.207Z,75.70
2023-03-29T16:54:17.265Z,76.30
2023-03-29T16:56:45.450Z,76.40
2023-03-29T16:59:13.612Z,76.60
2023-03-29T17:01:41.747Z,77.20
2023-03-29T17:04:11.580Z,76.60
2023-03-29T17:06:39.640Z,77.10
2023-03-29T17:09:07.855Z,77.50
2023-03-29T17:11:36.064Z,77.40
2023-03-29T17:14:04.104Z,77.30
2023-03-29T17:16:32.460Z,77.70
2023-03-29T17:19:00.930Z,78.30
2023-03-29T17:21:32.375Z,78.30
2023-03-29T17:24:00.353Z,78.50
2023-03-29T17:26:28.331Z,78.50
2023-03-29T17:28:56.391Z,78.30
2023-03-29T17:31:24.534Z,78.60
2023-03-29T17:33:52.747Z,78.60
2023-03-29T17:36:24.129Z,78.60
2023-03-29T17:38:54.758Z,80.00
2023-03-29T17:41:22.918Z,80.40
2023-03-29T17:43:51.478Z,79.60
2023-03-29T17:46:22.836Z,78.80
2023-03-29T17:48:51.765Z,78.10
2023-03-29T17:51:20.088Z,79.00
2023-03-29T17:53:48.298Z,79.30
2023-03-29T17:56:17.676Z,79.50
2023-03-29T17:58:45.638Z,80.00
2023-03-29T18:01:14.647Z,80.40
2023-03-29T18:03:43.364Z,80.60
2023-03-29T18:06:11.579Z,81.20
2023-03-29T18:08:39.969Z,81.80
2023-03-29T18:11:09.812Z,81.10
2023-03-29T18:13:40.037Z,80.60
2023-03-29T18:16:09.513Z,80.60
2023-03-29T18:18:38.596Z,81.30
2023-03-29T18:21:10.184Z,83.00
2023-03-29T18:23:40.570Z,83.00
2023-03-29T18:26:09.501Z,82.80
2023-03-29T18:28:38.834Z,83.10
2023-03-29T18:31:06.861Z,82.40
2023-03-29T18:33:36.197Z,82.10
2023-03-29T18:36:08.438Z,83.10
2023-03-29T18:38:40.410Z,84.40
2023-03-29T18:41:09.455Z,83.90
2023-03-29T18:43:39.757Z,83.80
2023-03-29T18:46:08.325Z,83.90
2023-03-29T18:48:39.124Z,84.10
2023-03-29T18:51:07.859Z,83.30
2023-03-29T18:53:36.232Z,83.60
2023-03-29T18:56:04.937Z,85.20
2023-03-29T18:58:33.119Z,85.00
2023-03-29T19:01:06.986Z,85.40
2023-03-29T19:03:36.317Z,85.30
2023-03-29T19:06:04.974Z,85.10
2023-03-29T19:08:34.439Z,84.40
2023-03-29T19:11:04.374Z,84.70
2023-03-29T19:13:32.642Z,85.90
2023-03-29T19:16:01.173Z,85.70
2023-03-29T19:18:31.125Z,85.70
2023-03-29T19:20:59.154Z,85.80
2023-03-29T19:23:28.440Z,85.80
2023-03-29T19:25:58.114Z,87.20
2023-03-29T19:28:26.657Z,88.00
2023-03-29T19:30:55.465Z,86.20
2023-03-29T19:33:23.867Z,85.90
2023-03-29T19:35:53.316Z,86.50
2023-03-29T19:38:21.994Z,87.70
2023-03-29T19:40:51.363Z,88.20
2023-03-29T19:43:20.937Z,88.00
2023-03-29T19:45:50.731Z,87.40
2023-03-29T19:48:23.477Z,88.70
2023-03-29T19:50:53.390Z,88.10
2023-03-29T19:53:23.222Z,87.50
2023-03-29T19:55:51.413Z,89.70
2023-03-29T19:58:19.354Z,90.00
2023-03-29T20:00:47.733Z,90.30
2023-03-29T20:03:15.827Z,90.10
2023-03-29T20:05:44.106Z,90.00
2023-03-29T20:08:13.462Z,89.60
2023-03-29T20:10:41.526Z,89.80
2023-03-29T20:13:09.661Z,90.40
2023-03-29T20:15:37.671Z,90.20
2023-03-29T20:18:06.340Z,90.00
2023-03-29T20:20:35.709Z,89.90
2023-03-29T20:23:05.426Z,90.00
2023-03-29T20:25:36.307Z,90.10
2023-03-29T20:28:04.777Z,89.80
2023-03-29T20:30:32.916Z,89.60
2023-03-29T20:33:00.930Z,90.20
2023-03-29T20:35:29.177Z,90.20
2023-03-29T20:37:57.160Z,90.00
2023-03-29T20:40:25.166Z,90.40
2023-03-29T20:42:54.692Z,90.20
2023-03-29T20:45:22.986Z,90.40
2023-03-29T20:47:56.223Z,89.80
2023-03-29T20:50:26.860Z,89.80
2023-03-29T20:52:55.278Z,90.20
2023-03-29T20:55:24.004Z,90.50
2023-03-29T20:57:55.066Z,90.70
2023-03-29T21:00:23.861Z,90.40
2023-03-29T21:02:53.009Z,90.40
2023-03-29T21:05:21.155Z,90.60
2023-03-29T21:07:49.222Z,90.50
2023-03-29T21:10:17.810Z,90.40
2023-03-29T21:12:45.885Z,90.20
2023-03-29T21:15:17.793Z,90.30
2023-03-29T21:17:46.169Z,90.10
2023-03-29T21:20:15.198Z,89.40
2023-03-29T21:22:44.063Z,89.80
2023-03-29T21:25:15.580Z,89.90
2023-03-29T21:27:43.765Z,90.00
2023-03-29T21:30:12.461Z,90.00
2023-03-29T21:32:41.955Z,89.80
2023-03-29T21:35:11.237Z,89.40
2023-03-29T21:37:39.425Z,89.40
2023-03-29T21:40:09.288Z,89.60
2023-03-29T21:42:37.362Z,89.60
2023-03-29T21:45:06.173Z,90.00
2023-03-29T21:47:34.233Z,90.20
2023-03-29T21:50:03.621Z,90.10
2023-03-29T21:52:31.815Z,90.20
2023-03-29T21:54:59.836Z,90.40
2023-03-29T21:57:27.941Z,90.50
2023-03-29T21:59:56.034Z,90.40
2023-03-29T22:02:24.520Z,90.50
2023-03-29T22:05:36.845Z,90.50
2023-03-29T22:08:06.725Z,90.50
2023-03-29T22:10:34.726Z,90.50
2023-03-29T22:13:03.416Z,90.60
2023-03-29T22:15:35.621Z,90.60
2023-03-29T22:18:03.945Z,90.40
2023-03-29T22:20:35.628Z,90.30
2023-03-29T22:23:06.064Z,90.50
2023-03-29T22:25:34.003Z,90.90
2023-03-29T22:28:02.067Z,91.00
2023-03-29T22:30:30.120Z,90.70
2023-03-29T22:32:58.153Z,90.70
2023-03-29T22:35:26.206Z,91.20
2023-03-29T22:37:54.361Z,91.50
2023-03-29T22:40:23.869Z,91.40
2023-03-29T22:42:51.931Z,91.60
2023-03-29T22:45:20.719Z,91.60
2023-03-29T22:47:48.811Z,91.50
2023-03-29T22:50:17.304Z,91.20
2023-03-29T22:52:45.726Z,91.10
2023-03-29T22:55:13.689Z,91.70
2023-03-29T22:57:43.716Z,92.40
2023-03-29T23:00:13.257Z,92.20
2023-03-29T23:02:41.814Z,92.10
2023-03-29T23:05:10.007Z,92.10
2023-03-29T23:07:38.062Z,92.50
2023-03-29T23:10:07.578Z,92.50
2023-03-29T23:12:36.711Z,91.90
2023-03-29T23:15:08.145Z,91.70
2023-03-29T23:17:37.215Z,92.10
2023-03-29T23:20:07.135Z,92.60
2023-03-29T23:22:36.458Z,92.80
2023-03-29T23:25:04.619Z,92.80
2023-03-29T23:27:33.174Z,92.90
2023-03-29T23:30:01.754Z,92.70
2023-03-29T23:32:31.163Z,92.40
2023-03-29T23:35:00.157Z,92.50
2023-03-29T23:37:28.189Z,93.20
2023-03-29T23:39:56.199Z,92.90
2023-03-29T23:42:24.208Z,92.80
2023-03-29T23:44:52.338Z,92.80
2023-03-29T23:47:20.847Z,92.80
2023-03-29T23:49:50.705Z,92.90
2023-03-29T23:52:18.992Z,93.00
2023-03-29T23:54:46.952Z,92.90
2023-03-29T23:57:15.407Z,93.00
2023-03-29T23:59:43.368Z,93.00
